Time;durP1;ratioP1;P1;durP2;ratioP2;P2;SDS_P1;SDS_P2;PMS_P1;PMS_P2;Temp;Humidity;BMP_temperature;BMP_pressure;BME280_temperature;BME280_humidity;BME280_pressure;Samples;Min_cycle;Max_cycle;Signal;HPM_P1;HPM_P2
2021/06/07 00:01:57;;;;;;;;;;;16.30;99.90;;;;;;4985621;28;20364;-62
2021/06/07 00:04:26;;;;;;;;;;;16.30;99.90;;;;;;4988237;28;20302;-62
2021/06/07 00:06:54;;;;;;;;;;;16.20;99.90;;;;;;4991075;28;19926;-62
2021/06/07 00:09:23;;;;;;;;;;;16.20;99.90;;;;;;4989975;28;19938;-62
2021/06/07 00:11:56;;;;;;;;;;;16.20;99.90;;;;;;4985274;28;19930;-62
2021/06/07 00:14:26;;;;;;;;;;;16.20;99.90;;;;;;4987316;28;19932;-62
2021/06/07 00:16:53;;;;;;;;;;;16.20;99.90;;;;;;4977708;28;19933;-63
2021/06/07 00:19:22;;;;;;;;;;;16.10;99.90;;;;;;4989388;28;19926;-62
2021/06/07 00:21:51;;;;;;;;;;;16.10;99.90;;;;;;4984301;28;19926;-63
2021/06/07 00:24:19;;;;;;;;;;;16.10;99.90;;;;;;4988058;28;19961;-62
2021/06/07 00:26:48;;;;;;;;;;;16.10;99.90;;;;;;4987367;28;19938;-62
2021/06/07 00:29:16;;;;;;;;;;;16.10;99.90;;;;;;4981702;28;20314;-62
2021/06/07 00:31:44;;;;;;;;;;;16.00;99.90;;;;;;4986185;28;20349;-62
2021/06/07 00:34:12;;;;;;;;;;;16.00;99.90;;;;;;4971961;28;19940;-63
2021/06/07 00:36:41;;;;;;;;;;;16.00;99.90;;;;;;4969421;28;19926;-63
2021/06/07 00:39:09;;;;;;;;;;;16.00;99.90;;;;;;4985766;28;19926;-63
2021/06/07 00:41:37;;;;;;;;;;;16.00;99.90;;;;;;4984740;28;19926;-63
2021/06/07 00:44:09;;;;;;;;;;;16.00;99.90;;;;;;4990660;28;19996;-63
2021/06/07 00:46:37;;;;;;;;;;;15.90;99.90;;;;;;4981059;28;19926;-63
2021/06/07 00:49:29;;;;;;;;;;;15.90;99.90;;;;;;4981323;28;19930;-63
2021/06/07 00:51:57;;;;;;;;;;;15.90;99.90;;;;;;4982187;28;20436;-62
2021/06/07 00:54:25;;;;;;;;;;;15.90;99.90;;;;;;4972768;28;20297;-67
2021/06/07 00:56:52;;;;;;;;;;;15.90;99.90;;;;;;4986082;28;19934;-62
2021/06/07 00:59:21;;;;;;;;;;;15.90;99.90;;;;;;4971056;28;19926;-63
2021/06/07 01:01:49;;;;;;;;;;;15.90;99.90;;;;;;4980002;28;19930;-63
2021/06/07 01:04:18;;;;;;;;;;;15.90;99.90;;;;;;4989938;28;20574;-62
2021/06/07 01:06:46;;;;;;;;;;;15.90;99.90;;;;;;4988447;28;19936;-63
2021/06/07 01:09:14;;;;;;;;;;;15.90;99.90;;;;;;4987457;28;19973;-62
2021/06/07 01:11:41;;;;;;;;;;;15.90;99.90;;;;;;4988651;28;19992;-63
2021/06/07 01:14:09;;;;;;;;;;;15.90;99.90;;;;;;4991975;28;19926;-63
2021/06/07 01:16:39;;;;;;;;;;;15.90;99.90;;;;;;4986772;28;19925;-62
2021/06/07 01:19:07;;;;;;;;;;;16.00;99.90;;;;;;4989634;28;19930;-62
2021/06/07 01:21:35;;;;;;;;;;;16.00;99.90;;;;;;4985469;28;19926;-62
2021/06/07 01:24:05;;;;;;;;;;;16.00;99.90;;;;;;4989452;28;19998;-64
2021/06/07 01:26:34;;;;;;;;;;;16.00;99.90;;;;;;4991386;28;19930;-62
2021/06/07 01:29:26;;;;;;;;;;;16.10;99.90;;;;;;4989310;28;19944;-63
2021/06/07 01:31:54;;;;;;;;;;;16.10;99.90;;;;;;4987089;28;19926;-62
2021/06/07 01:34:23;;;;;;;;;;;16.10;99.90;;;;;;4991047;28;19984;-62
2021/06/07 01:37:02;;;;;;;;;;;16.20;99.90;;;;;;4989758;28;19934;-65
2021/06/07 01:39:56;;;;;;;;;;;16.20;99.90;;;;;;4992015;28;20020;-63
2021/06/07 01:42:25;;;;;;;;;;;16.20;99.90;;;;;;4989866;28;19925;-62
2021/06/07 01:44:53;;;;;;;;;;;16.20;99.90;;;;;;4989520;28;19937;-62
2021/06/07 01:47:21;;;;;;;;;;;16.20;99.90;;;;;;4985278;28;19936;-62
2021/06/07 01:49:49;;;;;;;;;;;16.20;99.90;;;;;;4987418;28;19925;-62
2021/06/07 01:52:17;;;;;;;;;;;16.20;99.90;;;;;;4985131;28;19965;-62
2021/06/07 01:54:44;;;;;;;;;;;16.30;99.90;;;;;;4991440;28;19949;-63
2021/06/07 01:57:12;;;;;;;;;;;16.20;99.90;;;;;;4989017;28;19941;-62
2021/06/07 01:59:41;;;;;;;;;;;16.20;99.90;;;;;;4983537;28;19941;-62
2021/06/07 02:02:08;;;;;;;;;;;16.20;99.90;;;;;;4984015;28;20004;-62
2021/06/07 02:04:36;;;;;;;;;;;16.20;99.90;;;;;;4991041;28;19925;-62
2021/06/07 02:07:05;;;;;;;;;;;16.20;99.90;;;;;;4989399;28;20304;-63
2021/06/07 02:09:38;;;;;;;;;;;16.20;99.90;;;;;;4991670;28;19926;-62
2021/06/07 02:12:06;;;;;;;;;;;16.20;99.90;;;;;;4973504;28;20382;-62
2021/06/07 02:14:34;;;;;;;;;;;16.20;99.90;;;;;;4990907;28;20028;-63
2021/06/07 02:17:03;;;;;;;;;;;16.20;99.90;;;;;;4984938;28;20018;-63
2021/06/07 02:19:30;;;;;;;;;;;16.20;99.90;;;;;;4986455;28;19968;-62
2021/06/07 02:21:58;;;;;;;;;;;16.20;99.90;;;;;;4993912;28;19926;-64
2021/06/07 02:24:27;;;;;;;;;;;16.20;99.90;;;;;;4988458;28;19982;-63
2021/06/07 02:26:57;;;;;;;;;;;16.20;99.90;;;;;;4988226;28;20462;-63
2021/06/07 02:29:25;;;;;;;;;;;16.10;99.90;;;;;;4990806;28;20420;-62
2021/06/07 02:31:53;;;;;;;;;;;16.10;99.90;;;;;;4983410;28;19996;-63
2021/06/07 02:34:22;;;;;;;;;;;16.10;99.90;;;;;;4987885;28;19933;-62
2021/06/07 02:36:50;;;;;;;;;;;16.00;99.90;;;;;;4989467;28;19949;-63
2021/06/07 02:39:43;;;;;;;;;;;16.10;99.90;;;;;;4985509;28;19941;-63
2021/06/07 02:42:18;;;;;;;;;;;16.00;99.90;;;;;;4989708;28;19926;-63
2021/06/07 02:44:48;;;;;;;;;;;16.00;99.90;;;;;;4989862;28;19926;-63
2021/06/07 02:47:16;;;;;;;;;;;16.00;99.90;;;;;;4967110;28;20673;-62
2021/06/07 02:49:46;;;;;;;;;;;16.00;99.90;;;;;;4989563;28;19930;-63
2021/06/07 02:52:14;;;;;;;;;;;16.00;99.90;;;;;;4989915;28;20378;-62
2021/06/07 02:54:42;;;;;;;;;;;16.00;99.90;;;;;;4986325;28;19929;-62
2021/06/07 02:57:10;;;;;;;;;;;15.90;99.90;;;;;;4986119;28;20385;-62
2021/06/07 02:59:37;;;;;;;;;;;15.90;99.90;;;;;;4989718;28;19926;-66
2021/06/07 03:02:05;;;;;;;;;;;16.00;99.90;;;;;;4981623;28;19926;-63
2021/06/07 03:04:33;;;;;;;;;;;16.00;99.90;;;;;;4990529;28;20556;-64
2021/06/07 03:07:02;;;;;;;;;;;15.90;99.90;;;;;;4966773;28;19933;-63
2021/06/07 03:09:31;;;;;;;;;;;15.90;99.90;;;;;;4985422;28;19973;-63
2021/06/07 03:11:58;;;;;;;;;;;15.90;99.90;;;;;;4991536;28;20317;-63
2021/06/07 03:14:26;;;;;;;;;;;15.90;99.90;;;;;;4984616;28;19926;-63
2021/06/07 03:16:54;;;;;;;;;;;15.90;99.90;;;;;;4981938;28;20301;-63
2021/06/07 03:19:22;;;;;;;;;;;15.90;99.90;;;;;;4986618;28;19937;-62
2021/06/07 03:21:50;;;;;;;;;;;15.90;99.90;;;;;;4991456;28;20297;-63
2021/06/07 03:24:19;;;;;;;;;;;15.90;99.90;;;;;;4990002;28;19933;-65
2021/06/07 03:26:47;;;;;;;;;;;15.90;99.90;;;;;;4989278;28;19953;-62
2021/06/07 03:29:15;;;;;;;;;;;15.90;99.90;;;;;;4976580;28;19926;-63
2021/06/07 03:31:43;;;;;;;;;;;15.90;99.90;;;;;;4980017;28;19926;-63
2021/06/07 03:34:11;;;;;;;;;;;15.90;99.90;;;;;;4989275;28;19933;-63
2021/06/07 03:36:39;;;;;;;;;;;15.90;99.90;;;;;;4992776;28;20020;-63
2021/06/07 03:39:10;;;;;;;;;;;15.90;99.90;;;;;;4985076;28;19981;-63
2021/06/07 03:41:39;;;;;;;;;;;16.00;99.90;;;;;;4984228;28;20009;-63
2021/06/07 03:44:08;;;;;;;;;;;16.00;99.90;;;;;;4988887;28;20313;-63
2021/06/07 03:46:35;;;;;;;;;;;16.00;99.90;;;;;;4981076;28;19926;-63
2021/06/07 03:49:03;;;;;;;;;;;16.00;99.90;;;;;;4988005;28;19930;-63
2021/06/07 03:51:31;;;;;;;;;;;16.00;99.90;;;;;;4991041;28;19926;-63
2021/06/07 03:53:59;;;;;;;;;;;16.00;99.90;;;;;;4984919;28;19930;-63
2021/06/07 03:56:26;;;;;;;;;;;16.00;99.90;;;;;;4987523;28;19941;-62
2021/06/07 03:58:55;;;;;;;;;;;16.10;99.90;;;;;;4985960;28;19932;-61
2021/06/07 04:01:23;;;;;;;;;;;16.10;99.90;;;;;;4980363;28;20420;-61
2021/06/07 04:03:51;;;;;;;;;;;16.10;99.90;;;;;;4988736;28;19932;-62
2021/06/07 04:06:22;;;;;;;;;;;16.20;99.90;;;;;;4988308;28;19925;-62
2021/06/07 04:09:16;;;;;;;;;;;16.20;99.90;;;;;;4988307;28;20317;-62
2021/06/07 04:11:44;;;;;;;;;;;16.20;99.90;;;;;;4990202;28;19930;-63
2021/06/07 04:14:13;;;;;;;;;;;16.30;99.90;;;;;;4988999;28;19973;-63
2021/06/07 04:16:41;;;;;;;;;;;16.40;99.90;;;;;;4967745;28;20471;-63
2021/06/07 04:19:09;;;;;;;;;;;16.40;99.90;;;;;;4983768;28;19986;-63
2021/06/07 04:21:37;;;;;;;;;;;16.50;99.90;;;;;;4986929;28;19937;-63
2021/06/07 04:24:06;;;;;;;;;;;16.50;99.90;;;;;;4985297;28;19926;-63
2021/06/07 04:26:33;;;;;;;;;;;16.60;99.90;;;;;;4989533;28;20385;-63
2021/06/07 04:29:01;;;;;;;;;;;16.60;99.90;;;;;;4993309;28;19933;-63
2021/06/07 04:31:31;;;;;;;;;;;16.70;99.90;;;;;;4985353;28;19926;-64
2021/06/07 04:33:59;;;;;;;;;;;16.70;99.90;;;;;;4986743;28;19933;-63
2021/06/07 04:36:27;;;;;;;;;;;16.80;99.90;;;;;;4994462;28;19984;-63
2021/06/07 04:38:55;;;;;;;;;;;16.80;99.90;;;;;;4991049;28;19933;-63
2021/06/07 04:41:23;;;;;;;;;;;16.80;99.90;;;;;;4992256;28;19926;-62
2021/06/07 04:43:51;;;;;;;;;;;16.90;99.90;;;;;;4974445;28;19941;-62
2021/06/07 04:46:19;;;;;;;;;;;16.80;99.90;;;;;;4991310;28;20365;-63
2021/06/07 04:48:52;;;;;;;;;;;16.80;99.90;;;;;;4994034;28;19965;-68
2021/06/07 04:51:20;;;;;;;;;;;16.80;99.90;;;;;;4979133;28;19973;-62
2021/06/07 04:53:48;;;;;;;;;;;16.80;99.90;;;;;;4993337;28;19926;-62
2021/06/07 04:56:20;;;;;;;;;;;16.90;99.90;;;;;;4992448;28;19930;-63
2021/06/07 04:58:48;;;;;;;;;;;16.90;99.90;;;;;;4992914;28;19932;-63
2021/06/07 05:01:17;;;;;;;;;;;17.00;99.90;;;;;;4988609;28;19930;-63
2021/06/07 05:03:44;;;;;;;;;;;17.10;99.90;;;;;;4975009;28;19930;-63
2021/06/07 05:06:13;;;;;;;;;;;17.10;99.90;;;;;;4994366;28;20354;-63
2021/06/07 05:08:41;;;;;;;;;;;17.10;99.90;;;;;;4986830;28;19926;-62
2021/06/07 05:11:09;;;;;;;;;;;17.10;99.90;;;;;;4987463;28;19925;-63
2021/06/07 05:13:36;;;;;;;;;;;17.10;99.90;;;;;;4990041;28;19926;-63
2021/06/07 05:16:04;;;;;;;;;;;17.10;99.90;;;;;;4972206;28;19961;-62
2021/06/07 05:18:33;;;;;;;;;;;17.10;99.90;;;;;;4990774;28;20390;-63
2021/06/07 05:21:01;;;;;;;;;;;17.10;99.90;;;;;;4994817;28;19934;-63
2021/06/07 05:23:31;;;;;;;;;;;17.10;99.90;;;;;;4993153;28;19950;-62
2021/06/07 05:25:59;;;;;;;;;;;17.00;99.90;;;;;;4991691;28;19926;-63
2021/06/07 05:28:27;;;;;;;;;;;17.10;99.90;;;;;;4984245;28;19944;-63
2021/06/07 05:30:55;;;;;;;;;;;17.00;99.90;;;;;;4986638;28;19929;-62
2021/06/07 05:33:24;;;;;;;;;;;17.00;99.90;;;;;;4990223;28;19932;-63
2021/06/07 05:35:52;;;;;;;;;;;17.00;99.90;;;;;;4988817;28;20338;-62
2021/06/07 05:38:21;;;;;;;;;;;17.10;99.90;;;;;;4994135;28;19956;-66
2021/06/07 05:40:53;;;;;;;;;;;17.10;99.90;;;;;;4974487;28;19981;-63
2021/06/07 05:43:23;;;;;;;;;;;17.10;99.90;;;;;;4973715;28;19926;-63
2021/06/07 05:45:51;;;;;;;;;;;17.00;99.90;;;;;;4986712;28;19925;-62
2021/06/07 05:48:19;;;;;;;;;;;17.10;99.90;;;;;;4992073;28;19933;-62
2021/06/07 05:50:51;;;;;;;;;;;17.10;99.90;;;;;;4993279;28;19936;-62
2021/06/07 05:53:20;;;;;;;;;;;17.20;99.90;;;;;;4989635;28;19973;-62
2021/06/07 05:55:48;;;;;;;;;;;17.30;99.90;;;;;;4989975;28;19929;-63
2021/06/07 05:58:18;;;;;;;;;;;17.40;99.90;;;;;;4989270;28;19964;-65
2021/06/07 06:00:47;;;;;;;;;;;17.40;99.90;;;;;;4984566;28;19930;-62
2021/06/07 06:03:15;;;;;;;;;;;17.40;99.90;;;;;;4990775;28;19934;-62
2021/06/07 06:05:43;;;;;;;;;;;17.40;99.90;;;;;;4988744;28;19976;-62
2021/06/07 06:08:11;;;;;;;;;;;17.50;99.90;;;;;;4982467;28;19925;-64
2021/06/07 06:10:39;;;;;;;;;;;17.60;99.90;;;;;;4984957;28;20333;-65
2021/06/07 06:13:28;;;;;;;;;;;17.60;99.90;;;;;;4987158;28;19938;-62
2021/06/07 06:15:56;;;;;;;;;;;17.50;99.90;;;;;;4982046;28;19930;-62
2021/06/07 06:18:24;;;;;;;;;;;17.70;99.90;;;;;;4987765;28;19938;-62
2021/06/07 06:20:52;;;;;;;;;;;17.70;99.90;;;;;;4989501;28;19961;-63
2021/06/07 06:23:20;;;;;;;;;;;17.60;99.90;;;;;;4992604;28;19976;-62
2021/06/07 06:25:49;;;;;;;;;;;17.50;99.90;;;;;;4984404;28;19926;-63
2021/06/07 06:28:17;;;;;;;;;;;17.50;99.90;;;;;;4973848;28;19936;-63
2021/06/07 06:30:49;;;;;;;;;;;17.50;99.90;;;;;;4984460;28;20141;-62
2021/06/07 06:33:16;;;;;;;;;;;17.40;99.90;;;;;;4988696;28;20484;-63
2021/06/07 06:35:44;;;;;;;;;;;17.50;99.90;;;;;;4985207;28;20401;-63
2021/06/07 06:38:13;;;;;;;;;;;17.40;99.90;;;;;;4987872;28;20362;-63
2021/06/07 06:40:41;;;;;;;;;;;17.50;99.90;;;;;;4992414;28;19926;-62
2021/06/07 06:43:08;;;;;;;;;;;17.50;99.90;;;;;;4988680;28;19926;-62
2021/06/07 06:45:39;;;;;;;;;;;17.60;99.90;;;;;;4985796;28;19941;-63
2021/06/07 06:48:22;;;;;;;;;;;17.70;99.90;;;;;;4986876;28;19933;-62
2021/06/07 06:50:50;;;;;;;;;;;17.80;99.90;;;;;;4989849;28;19936;-63
2021/06/07 06:53:19;;;;;;;;;;;18.00;99.90;;;;;;4985878;28;20492;-62
2021/06/07 06:55:47;;;;;;;;;;;18.10;99.90;;;;;;4993169;28;19937;-62
2021/06/07 06:58:16;;;;;;;;;;;18.20;99.90;;;;;;4989654;28;19989;-63
2021/06/07 07:00:44;;;;;;;;;;;18.40;99.90;;;;;;4979606;28;20021;-63
2021/06/07 07:03:12;;;;;;;;;;;18.30;99.90;;;;;;4969189;28;19932;-63
2021/06/07 07:05:42;;;;;;;;;;;18.40;99.90;;;;;;4971752;28;19933;-63
2021/06/07 07:08:10;;;;;;;;;;;18.60;99.90;;;;;;4988641;28;20036;-63
2021/06/07 07:10:38;;;;;;;;;;;18.60;99.90;;;;;;4987338;28;20024;-64
2021/06/07 07:13:07;;;;;;;;;;;18.60;99.90;;;;;;4985529;28;19984;-61
2021/06/07 07:15:35;;;;;;;;;;;18.80;99.90;;;;;;4979462;28;19941;-63
2021/06/07 07:18:05;;;;;;;;;;;19.10;99.90;;;;;;4989964;28;20186;-62
2021/06/07 07:20:33;;;;;;;;;;;19.40;99.90;;;;;;4988092;28;20029;-62
2021/06/07 07:23:03;;;;;;;;;;;19.70;99.90;;;;;;4987657;28;19926;-62
2021/06/07 07:25:34;;;;;;;;;;;19.40;99.90;;;;;;4986959;28;19933;-61
2021/06/07 07:28:03;;;;;;;;;;;19.30;99.90;;;;;;4991555;28;19925;-63
2021/06/07 07:30:31;;;;;;;;;;;19.30;99.90;;;;;;4981598;28;19997;-62
2021/06/07 07:32:59;;;;;;;;;;;19.80;99.90;;;;;;4989999;28;19932;-62
2021/06/07 07:35:29;;;;;;;;;;;20.40;99.90;;;;;;4992011;28;20386;-62
2021/06/07 07:37:56;;;;;;;;;;;20.30;99.90;;;;;;4992046;28;19925;-62
2021/06/07 07:40:26;;;;;;;;;;;19.80;99.90;;;;;;4992344;28;20069;-62
2021/06/07 07:42:56;;;;;;;;;;;19.80;99.90;;;;;;4989791;28;19926;-64
2021/06/07 07:45:26;;;;;;;;;;;20.20;99.90;;;;;;4979785;28;19925;-61
2021/06/07 07:47:55;;;;;;;;;;;20.80;99.90;;;;;;4987316;28;19930;-61
2021/06/07 07:50:23;;;;;;;;;;;21.10;99.90;;;;;;4968151;28;20453;-62
2021/06/07 07:52:51;;;;;;;;;;;21.70;99.90;;;;;;4986812;28;20377;-63
2021/06/07 07:55:19;;;;;;;;;;;22.90;99.90;;;;;;4988502;28;19932;-63
2021/06/07 07:57:50;;;;;;;;;;;23.50;99.90;;;;;;4986081;28;19992;-63
2021/06/07 08:00:19;;;;;;;;;;;22.70;99.90;;;;;;4958092;28;20013;-64
2021/06/07 08:02:46;;;;;;;;;;;22.70;99.90;;;;;;4980690;28;20072;-63
2021/06/07 08:05:14;;;;;;;;;;;22.40;99.90;;;;;;4984208;28;19933;-62
2021/06/07 08:07:42;;;;;;;;;;;22.20;99.90;;;;;;4983022;28;20314;-63
2021/06/07 08:10:11;;;;;;;;;;;23.50;99.90;;;;;;4985183;28;19926;-63
2021/06/07 08:12:40;;;;;;;;;;;24.30;99.90;;;;;;4986180;28;20009;-63
2021/06/07 08:15:10;;;;;;;;;;;24.30;99.90;;;;;;4979287;28;19927;-63
2021/06/07 08:17:38;;;;;;;;;;;24.80;99.90;;;;;;4985165;28;19930;-63
2021/06/07 08:20:07;;;;;;;;;;;26.50;99.90;;;;;;4987929;28;19965;-63
2021/06/07 08:22:35;;;;;;;;;;;26.30;99.90;;;;;;4980642;28;20016;-62
2021/06/07 08:25:04;;;;;;;;;;;24.90;99.90;;;;;;4986116;28;19964;-61
2021/06/07 08:27:32;;;;;;;;;;;23.40;99.90;;;;;;4982760;28;19926;-63
2021/06/07 08:30:00;;;;;;;;;;;22.30;99.90;;;;;;4985016;28;20322;-62
2021/06/07 08:32:29;;;;;;;;;;;21.90;99.90;;;;;;4969582;28;19972;-62
2021/06/07 08:34:57;;;;;;;;;;;21.40;99.90;;;;;;4986783;28;19926;-62
2021/06/07 08:37:25;;;;;;;;;;;21.40;99.90;;;;;;4983391;28;19926;-66
2021/06/07 08:42:45;;;;;;;;;;;22.10;99.90;;;;;;4985378;28;19937;-62
2021/06/07 08:45:15;;;;;;;;;;;23.40;99.90;;;;;;4979033;28;19926;-61
2021/06/07 08:47:46;;;;;;;;;;;24.10;99.90;;;;;;4988669;28;20009;-65
2021/06/07 08:50:15;;;;;;;;;;;25.00;99.90;;;;;;4988067;28;19926;-62
2021/06/07 08:52:44;;;;;;;;;;;25.80;99.90;;;;;;4983539;28;19929;-62
2021/06/07 08:55:13;;;;;;;;;;;27.40;99.90;;;;;;4984581;28;19926;-62
2021/06/07 08:57:41;;;;;;;;;;;28.90;98.20;;;;;;4990406;28;19925;-62
2021/06/07 09:00:11;;;;;;;;;;;29.30;95.50;;;;;;4979901;28;20385;-61
2021/06/07 09:02:40;;;;;;;;;;;29.40;95.20;;;;;;4982710;28;19929;-62
2021/06/07 09:05:09;;;;;;;;;;;29.30;94.70;;;;;;4980310;28;19961;-63
2021/06/07 09:07:50;;;;;;;;;;;31.40;90.60;;;;;;4981680;28;19933;-63
2021/06/07 09:10:19;;;;;;;;;;;29.80;92.60;;;;;;4981806;28;19926;-63
2021/06/07 09:12:50;;;;;;;;;;;31.10;92.30;;;;;;4985419;28;20601;-65
2021/06/07 09:15:26;;;;;;;;;;;30.80;91.00;;;;;;4978327;28;20289;-63
2021/06/07 09:17:55;;;;;;;;;;;29.70;91.60;;;;;;4988044;28;20281;-67
2021/06/07 09:20:26;;;;;;;;;;;27.50;93.80;;;;;;4987032;28;19932;-63
2021/06/07 09:22:55;;;;;;;;;;;27.10;97.70;;;;;;4987836;28;20351;-63
2021/06/07 09:28:19;;;;;;;;;;;26.20;97.80;;;;;;4971329;28;19934;-62
2021/06/07 09:30:49;;;;;;;;;;;25.70;99.90;;;;;;4979995;28;20091;-61
2021/06/07 09:33:29;;;;;;;;;;;25.20;99.90;;;;;;4990953;28;20033;-62
2021/06/07 09:36:17;;;;;;;;;;;25.50;99.90;;;;;;4982122;28;19973;-61
2021/06/07 09:39:07;;;;;;;;;;;26.20;99.90;;;;;;4988064;28;19926;-62
2021/06/07 09:41:51;;;;;;;;;;;25.60;99.90;;;;;;4980190;28;19926;-62
2021/06/07 09:44:21;;;;;;;;;;;24.70;99.90;;;;;;4988562;28;20598;-62
2021/06/07 09:46:51;;;;;;;;;;;23.90;99.90;;;;;;4981693;28;20486;-63
2021/06/07 09:49:21;;;;;;;;;;;23.60;99.90;;;;;;4973452;28;19925;-63
2021/06/07 09:51:54;;;;;;;;;;;23.40;99.90;;;;;;4987917;28;20443;-63
2021/06/07 09:54:23;;;;;;;;;;;23.30;99.90;;;;;;4992993;28;19925;-63
2021/06/07 09:56:52;;;;;;;;;;;23.80;99.90;;;;;;4986155;28;19941;-63
2021/06/07 09:59:23;;;;;;;;;;;23.90;99.90;;;;;;4986075;28;19950;-65
2021/06/07 10:01:51;;;;;;;;;;;24.60;99.90;;;;;;4983874;28;19926;-62
2021/06/07 10:04:19;;;;;;;;;;;24.30;99.90;;;;;;4973775;28;20390;-62
2021/06/07 10:06:46;;;;;;;;;;;24.00;99.90;;;;;;4981524;28;20405;-62
2021/06/07 10:09:18;;;;;;;;;;;23.90;99.90;;;;;;4982896;28;20323;-62
2021/06/07 10:11:46;;;;;;;;;;;23.50;99.90;;;;;;4979663;28;19954;-62
2021/06/07 10:14:18;;;;;;;;;;;23.30;99.90;;;;;;4985431;28;19973;-64
2021/06/07 10:16:54;;;;;;;;;;;23.40;99.90;;;;;;4986290;28;19972;-62
2021/06/07 10:19:31;;;;;;;;;;;23.40;99.90;;;;;;4989750;28;19952;-62
2021/06/07 10:22:24;;;;;;;;;;;23.80;99.90;;;;;;4990590;28;19926;-61
2021/06/07 10:24:53;;;;;;;;;;;24.00;99.90;;;;;;4971520;28;19976;-61
2021/06/07 10:27:21;;;;;;;;;;;23.70;99.90;;;;;;4988722;28;20355;-62
2021/06/07 10:29:49;;;;;;;;;;;23.50;99.90;;;;;;4975632;28;19961;-63
2021/06/07 10:32:18;;;;;;;;;;;23.50;99.90;;;;;;4981073;28;20098;-66
2021/06/07 10:34:47;;;;;;;;;;;23.20;99.90;;;;;;4989229;28;19930;-62
2021/06/07 10:37:19;;;;;;;;;;;22.80;99.90;;;;;;4991070;28;19925;-62
2021/06/07 10:39:47;;;;;;;;;;;22.80;99.90;;;;;;4986669;28;19930;-61
2021/06/07 10:42:31;;;;;;;;;;;22.90;99.90;;;;;;4989335;28;20397;-62
2021/06/07 10:45:00;;;;;;;;;;;22.10;99.90;;;;;;4992979;28;19932;-61
2021/06/07 10:47:29;;;;;;;;;;;21.60;99.90;;;;;;4968332;28;20394;-67
2021/06/07 10:49:58;;;;;;;;;;;21.50;99.90;;;;;;4993268;28;19933;-69
2021/06/07 10:52:27;;;;;;;;;;;21.70;99.90;;;;;;4991136;28;19995;-62
2021/06/07 10:54:56;;;;;;;;;;;21.70;99.90;;;;;;4993667;28;20023;-62
2021/06/07 10:57:28;;;;;;;;;;;21.70;99.90;;;;;;4988345;28;19934;-62
2021/06/07 10:59:58;;;;;;;;;;;21.80;99.90;;;;;;4989726;28;19926;-62
2021/06/07 11:02:26;;;;;;;;;;;22.00;99.90;;;;;;4985737;28;20032;-62
2021/06/07 11:05:01;;;;;;;;;;;21.50;99.90;;;;;;4989099;28;19941;-62
2021/06/07 11:07:29;;;;;;;;;;;21.70;99.90;;;;;;4967157;28;19925;-62
2021/06/07 11:10:23;;;;;;;;;;;21.60;99.90;;;;;;4980961;28;20349;-62
2021/06/07 11:12:52;;;;;;;;;;;21.70;99.90;;;;;;4951027;28;19937;-62
2021/06/07 11:15:22;;;;;;;;;;;21.50;99.90;;;;;;4982333;28;19934;-62
2021/06/07 11:17:51;;;;;;;;;;;21.40;99.90;;;;;;4984744;28;20012;-67
2021/06/07 11:20:33;;;;;;;;;;;21.70;99.90;;;;;;4986346;28;20502;-62
2021/06/07 11:23:08;;;;;;;;;;;22.00;99.90;;;;;;4988147;28;20053;-61
2021/06/07 11:25:46;;;;;;;;;;;21.70;99.90;;;;;;4986033;28;19952;-62
2021/06/07 11:28:35;;;;;;;;;;;21.10;99.90;;;;;;4986200;28;19926;-62
2021/06/07 11:31:39;;;;;;;;;;;21.20;99.90;;;;;;4981911;28;19936;-65
2021/06/07 11:34:08;;;;;;;;;;;21.40;99.90;;;;;;4968754;28;19929;-62
2021/06/07 11:36:37;;;;;;;;;;;21.50;99.90;;;;;;4987417;28;20373;-61
2021/06/07 11:39:26;;;;;;;;;;;21.60;99.90;;;;;;4989765;28;19984;-61
2021/06/07 11:42:01;;;;;;;;;;;21.80;99.90;;;;;;4974817;28;19925;-62
2021/06/07 11:44:50;;;;;;;;;;;21.90;99.90;;;;;;4971103;28;19925;-61
2021/06/07 11:47:20;;;;;;;;;;;21.30;99.90;;;;;;4982820;28;19930;-62
2021/06/07 11:50:08;;;;;;;;;;;21.20;99.90;;;;;;4983752;28;19981;-61
2021/06/07 11:52:50;;;;;;;;;;;21.40;99.90;;;;;;4982276;28;19926;-61
2021/06/07 11:55:27;;;;;;;;;;;21.80;99.90;;;;;;4972805;28;19961;-62
2021/06/07 11:58:11;;;;;;;;;;;21.90;99.90;;;;;;4986620;28;20370;-62
2021/06/07 12:00:40;;;;;;;;;;;21.80;99.90;;;;;;4977514;28;19933;-62
2021/06/07 12:03:10;;;;;;;;;;;22.10;99.90;;;;;;4983140;28;19953;-62
2021/06/07 12:05:40;;;;;;;;;;;22.00;99.90;;;;;;4989939;28;19953;-62
2021/06/07 12:08:09;;;;;;;;;;;22.30;99.90;;;;;;4989549;28;19926;-62
2021/06/07 12:10:37;;;;;;;;;;;22.70;99.90;;;;;;4989307;28;19961;-63
2021/06/07 12:13:15;;;;;;;;;;;22.80;99.90;;;;;;4984284;28;19987;-62
2021/06/07 12:15:44;;;;;;;;;;;23.10;99.90;;;;;;4977549;28;20353;-62
2021/06/07 12:18:13;;;;;;;;;;;23.50;99.90;;;;;;4989576;28;19957;-62
2021/06/07 12:20:41;;;;;;;;;;;24.00;99.90;;;;;;4983189;28;20267;-67
2021/06/07 12:23:09;;;;;;;;;;;24.50;99.90;;;;;;4987984;28;19930;-63
2021/06/07 12:25:45;;;;;;;;;;;24.50;99.90;;;;;;4985468;28;19934;-63
2021/06/07 12:28:20;;;;;;;;;;;24.00;99.90;;;;;;4981011;28;19934;-62
2021/06/07 12:31:12;;;;;;;;;;;23.90;99.90;;;;;;4976680;28;19933;-61
2021/06/07 12:33:43;;;;;;;;;;;24.50;99.90;;;;;;4984164;28;19926;-61
2021/06/07 12:36:11;;;;;;;;;;;24.80;99.90;;;;;;4984544;28;19926;-61
2021/06/07 12:38:40;;;;;;;;;;;24.70;99.90;;;;;;4981359;28;19972;-62
2021/06/07 12:41:08;;;;;;;;;;;24.80;99.90;;;;;;4988309;28;20295;-62
2021/06/07 12:43:41;;;;;;;;;;;24.80;99.90;;;;;;4987708;28;19932;-61
2021/06/07 12:46:09;;;;;;;;;;;25.00;99.90;;;;;;4982985;28;19949;-61
2021/06/07 12:48:38;;;;;;;;;;;24.50;99.90;;;;;;4986791;28;20402;-63
2021/06/07 12:51:09;;;;;;;;;;;24.80;99.90;;;;;;4990590;28;19934;-62
2021/06/07 12:53:39;;;;;;;;;;;24.00;99.90;;;;;;4988309;28;19930;-63
2021/06/07 12:56:13;;;;;;;;;;;24.20;99.90;;;;;;4985928;28;19932;-62
2021/06/07 12:58:45;;;;;;;;;;;24.20;99.90;;;;;;4990862;28;20354;-63
2021/06/07 13:01:16;;;;;;;;;;;24.50;99.90;;;;;;4984724;28;19961;-63
2021/06/07 13:03:51;;;;;;;;;;;25.00;99.90;;;;;;4990058;28;19930;-62
2021/06/07 13:06:21;;;;;;;;;;;25.10;99.90;;;;;;4988773;28;20355;-63
2021/06/07 13:08:51;;;;;;;;;;;25.40;99.90;;;;;;4975758;28;19941;-63
2021/06/07 13:14:20;;;;;;;;;;;25.20;99.60;;;;;;4977627;28;20400;-62
2021/06/07 13:16:48;;;;;;;;;;;25.70;99.50;;;;;;4977449;28;19930;-63
2021/06/07 13:19:16;;;;;;;;;;;25.90;99.20;;;;;;4986929;28;20329;-63
2021/06/07 13:21:48;;;;;;;;;;;25.40;99.90;;;;;;4984028;28;19926;-63
2021/06/07 13:24:18;;;;;;;;;;;25.20;98.80;;;;;;4969346;28;20029;-62
2021/06/07 13:26:53;;;;;;;;;;;25.10;99.70;;;;;;4989930;28;19957;-62
2021/06/07 13:29:22;;;;;;;;;;;25.50;98.80;;;;;;4975401;28;19926;-62
2021/06/07 13:32:05;;;;;;;;;;;26.00;99.10;;;;;;4976765;28;19926;-63
2021/06/07 13:34:38;;;;;;;;;;;26.30;98.50;;;;;;4983022;28;19952;-62
2021/06/07 13:37:08;;;;;;;;;;;26.50;97.70;;;;;;4977509;28;19926;-62
2021/06/07 13:39:42;;;;;;;;;;;26.10;98.30;;;;;;4988973;28;19949;-62
2021/06/07 13:42:10;;;;;;;;;;;26.30;97.70;;;;;;4987406;28;20441;-66
2021/06/07 13:44:51;;;;;;;;;;;26.20;98.00;;;;;;4983764;28;19973;-62
2021/06/07 13:47:20;;;;;;;;;;;25.80;97.40;;;;;;4978800;28;19926;-61
2021/06/07 13:50:18;;;;;;;;;;;25.00;99.40;;;;;;4990390;28;19930;-61
2021/06/07 13:52:49;;;;;;;;;;;24.70;99.40;;;;;;4909938;29;19947;-61
2021/06/07 13:55:21;;;;;;;;;;;24.30;99.30;;;;;;4969830;28;19941;-62
2021/06/07 13:57:59;;;;;;;;;;;24.30;99.90;;;;;;4975622;28;19933;-66
2021/06/07 14:00:27;;;;;;;;;;;24.70;99.90;;;;;;4981152;28;20362;-61
2021/06/07 14:02:55;;;;;;;;;;;25.00;99.90;;;;;;4981560;28;19933;-62
2021/06/07 14:05:26;;;;;;;;;;;25.40;99.00;;;;;;4992355;28;19932;-61
2021/06/07 14:08:00;;;;;;;;;;;25.40;99.00;;;;;;4979143;28;19989;-60
2021/06/07 14:10:27;;;;;;;;;;;25.50;99.00;;;;;;4986729;28;19930;-61
2021/06/07 14:12:55;;;;;;;;;;;25.60;99.20;;;;;;4984599;28;19950;-62
2021/06/07 14:15:23;;;;;;;;;;;25.70;99.10;;;;;;4978640;28;20622;-61
2021/06/07 14:17:50;;;;;;;;;;;25.60;99.00;;;;;;4989287;28;20028;-68
2021/06/07 14:20:18;;;;;;;;;;;25.40;98.60;;;;;;4989078;28;19953;-65
2021/06/07 14:25:38;;;;;;;;;;;25.50;99.00;;;;;;4988081;28;19952;-62
2021/06/07 14:28:07;;;;;;;;;;;25.10;98.40;;;;;;4987801;28;19926;-62
2021/06/07 14:30:36;;;;;;;;;;;24.90;99.50;;;;;;4985905;28;19930;-62
2021/06/07 14:33:04;;;;;;;;;;;25.10;99.40;;;;;;4987518;28;19925;-61
2021/06/07 14:35:33;;;;;;;;;;;25.50;98.70;;;;;;4986274;28;19981;-61
2021/06/07 14:38:01;;;;;;;;;;;25.60;99.00;;;;;;4991305;28;19926;-62
2021/06/07 14:40:28;;;;;;;;;;;25.70;99.80;;;;;;4985977;28;19936;-61
2021/06/07 14:42:58;;;;;;;;;;;25.60;99.90;;;;;;4986714;28;19926;-62
2021/06/07 14:45:25;;;;;;;;;;;25.50;99.90;;;;;;4979881;28;19934;-62
2021/06/07 14:47:53;;;;;;;;;;;25.40;99.90;;;;;;4980779;28;19933;-62